Grand Rapids, MI

12:00 AM EST on November 19, 2019 (GMT -0500)
Kentwood MI 1.8 SSE | | Change Station

Elev 757 ft 42.86 °N, 85.57 °W | Updated 11 seconds ago

Overcast
Overcast
39.4 °F
Feels Like 39 °F
N
0.7
Wind Variable Wind from WNW
Gusts 2.0 mph

Today
High -- | Low -- °F
--% Chance of Precip.
Yesterday
High -- | Low -- °F
Precip. -- in
Pressure 29.75 in
Visibility 2.0 miles
Clouds Overcast 400 ft
Windchill 39 °F
Dew Point 37 °F
Humidity 92%
Rainfall 0.00 in
Snow Depth Not available.
7:39 AM 5:15 PM
Waning Gibbous, 58% visible
METAR KGRR 190453Z 00000KT 2SM R26L/6000VP6000FT BR OVC004 04/03 A2974 RMK AO2 DZE52 SLP074 LAST P0000 T00390028 400721006
Pressure 29.75 in
Visibility 2.0 miles
Clouds Overcast 400 ft
Windchill 39 °F
Dew Point 37 °F
Humidity 92%
Rainfall 0.00 in
Snow Depth Not available.
7:39 AM 5:15 PM
Waning Gibbous, 58% visible
METAR KGRR 190453Z 00000KT 2SM R26L/6000VP6000FT BR OVC004 04/03 A2974 RMK AO2 DZE52 SLP074 LAST P0000 T00390028 400721006

Get Severe Weather Alerts

Thanks for signing up!

Be on the lookout for a verification email in your inbox.

You'll start receiving the daily forecast at 6 AM.

×

10-Day Weather Forecast

Almanac

Astronomy

Nov. 19, 2019 Rise Set
Actual Time
Civil Twilight
Nautical Twilight
Astronomical Twilight
Moon
Length of Visible Light
Length of Day
Tomorrow will be .
, % of the Moon is Illuminated

Today's Extremes

State Highs State Lows

Community

WunderPhotos

Category 6

Welcome to Category 6. This is the collective home for Weather Underground's featured writeups by Dr. Jeff Masters (right), Bob Henson (left), Chris Burt, and other regular contributors.

Nearby

Air Quality

  Air Quality AQ Index Pollutant
Not available.

Snow Depth

Station Depth Elevation

Earthquake Activity

City Distance Mag. Time & Date
Minimum magnitude displayed is 2.5.

Coastal Water Temperatures

Place Temperature

Stations

Nearby Weather Stations

Station Location Temp. Windchill Dew Point Humidity Wind Precip. Elev Updated Type
                   

Watches & Warnings

There are currently no watches in effect.